createdAt,value
2017-09-18T00:01:08.931Z,2.55
2017-09-18T00:03:36.453Z,3.15
2017-09-18T00:06:03.937Z,3.65
2017-09-18T00:08:31.443Z,2.70
2017-09-18T00:10:59.348Z,2.60
2017-09-18T00:13:26.862Z,2.40
2017-09-18T00:15:54.393Z,2.90
2017-09-18T00:18:22.277Z,2.40
2017-09-18T00:20:49.801Z,2.92
2017-09-18T00:23:17.295Z,2.83
2017-09-18T00:25:44.824Z,3.53
2017-09-18T00:28:12.331Z,3.25
2017-09-18T00:30:39.846Z,4.18
2017-09-18T00:33:07.338Z,3.25
2017-09-18T00:35:34.842Z,3.42
2017-09-18T00:38:02.376Z,3.30
2017-09-18T00:40:30.349Z,3.20
2017-09-18T00:42:57.872Z,2.87
2017-09-18T00:45:25.371Z,2.90
2017-09-18T00:47:52.899Z,2.83
2017-09-18T00:50:20.394Z,3.15
2017-09-18T00:52:47.900Z,3.85
2017-09-18T00:55:15.418Z,3.55
2017-09-18T00:57:43.312Z,3.22
2017-09-18T01:00:10.826Z,2.50
2017-09-18T01:02:38.367Z,2.90
2017-09-18T01:05:05.891Z,2.90
2017-09-18T01:07:33.532Z,2.75
2017-09-18T01:10:01.091Z,2.35
2017-09-18T01:12:28.635Z,2.45
2017-09-18T01:14:56.187Z,2.62
2017-09-18T01:17:23.730Z,2.75
2017-09-18T01:19:51.239Z,3.78
2017-09-18T01:22:19.158Z,2.80
2017-09-18T01:24:47.063Z,3.60
2017-09-18T01:27:14.589Z,3.37
2017-09-18T01:29:42.097Z,3.45
2017-09-18T01:32:09.599Z,3.60
2017-09-18T01:34:37.110Z,3.70
2017-09-18T01:37:04.604Z,3.75
2017-09-18T01:39:32.114Z,3.20
2017-09-18T01:42:00.002Z,3.85
2017-09-18T01:44:27.512Z,3.30
2017-09-18T01:46:55.407Z,3.65
2017-09-18T01:49:23.327Z,3.37
2017-09-18T01:51:50.829Z,3.00
2017-09-18T01:54:18.332Z,3.20
2017-09-18T01:56:45.854Z,2.95
2017-09-18T01:59:13.748Z,2.92
2017-09-18T02:01:41.279Z,3.75
2017-09-18T02:04:08.821Z,3.62
2017-09-18T02:06:36.354Z,3.50
2017-09-18T02:09:03.871Z,3.60
2017-09-18T02:11:31.795Z,3.08
2017-09-18T02:13:59.294Z,3.40
2017-09-18T02:16:26.797Z,3.75
2017-09-18T02:18:54.309Z,4.18
2017-09-18T02:21:21.816Z,3.33
2017-09-18T02:23:49.368Z,3.92
2017-09-18T02:26:16.867Z,3.80
2017-09-18T02:28:44.394Z,4.65
2017-09-18T02:31:11.892Z,3.90
2017-09-18T02:33:39.412Z,3.80
2017-09-18T02:36:06.909Z,3.80
2017-09-18T02:38:34.419Z,4.80
2017-09-18T02:41:01.947Z,4.47
2017-09-18T02:43:29.459Z,4.10
2017-09-18T02:45:57.205Z,4.47
2017-09-18T02:48:24.711Z,3.40
2017-09-18T02:50:52.262Z,3.62
2017-09-18T02:53:19.782Z,3.67
2017-09-18T02:55:47.290Z,3.60
2017-09-18T02:58:14.807Z,3.28
2017-09-18T03:00:42.314Z,4.40
2017-09-18T03:03:09.849Z,3.35
2017-09-18T03:05:37.349Z,4.07
2017-09-18T03:08:04.872Z,3.85
2017-09-18T03:10:33.312Z,3.67
2017-09-18T03:13:00.823Z,3.90
2017-09-18T03:15:28.337Z,4.25
2017-09-18T03:17:55.842Z,3.80
2017-09-18T03:20:23.358Z,4.72
2017-09-18T03:22:50.849Z,4.43
2017-09-18T03:25:18.362Z,4.20
2017-09-18T03:27:46.258Z,4.30
2017-09-18T03:30:14.553Z,4.82
2017-09-18T03:32:42.060Z,5.05
2017-09-18T03:35:09.572Z,4.45
2017-09-18T03:37:37.120Z,4.72
2017-09-18T03:40:04.649Z,4.40
2017-09-18T03:42:32.188Z,4.45
2017-09-18T03:45:00.084Z,4.97
2017-09-18T03:47:27.610Z,4.72
2017-09-18T03:49:55.129Z,4.28
2017-09-18T03:52:22.691Z,4.28
2017-09-18T03:54:50.206Z,5.62
2017-09-18T03:57:18.119Z,4.47
2017-09-18T03:59:45.643Z,4.82
2017-09-18T04:02:13.174Z,4.82
2017-09-18T04:04:40.691Z,4.95
2017-09-18T04:07:08.640Z,5.85
2017-09-18T04:09:36.594Z,5.93
2017-09-18T04:12:04.120Z,5.97
2017-09-18T04:14:31.658Z,6.53
2017-09-18T04:16:59.185Z,6.20
2017-09-18T04:19:27.690Z,5.25
2017-09-18T04:21:55.224Z,4.80
2017-09-18T04:24:22.742Z,4.40
2017-09-18T04:26:50.330Z,4.65
2017-09-18T04:29:18.286Z,3.80
2017-09-18T04:31:45.836Z,4.07
2017-09-18T04:34:13.811Z,3.42
2017-09-18T04:36:41.371Z,5.30
2017-09-18T04:39:08.910Z,3.92
2017-09-18T04:41:36.466Z,3.67
2017-09-18T04:44:03.977Z,4.00
2017-09-18T04:46:31.495Z,4.00
2017-09-18T04:48:59.060Z,3.45
2017-09-18T04:51:26.609Z,3.80
2017-09-18T04:53:54.157Z,3.78
2017-09-18T04:56:21.682Z,3.75
2017-09-18T04:58:49.608Z,4.87
2017-09-18T05:01:17.143Z,4.85
2017-09-18T05:03:45.686Z,3.70
2017-09-18T05:06:13.194Z,4.55
2017-09-18T05:08:42.248Z,5.15
2017-09-18T05:11:09.799Z,5.30
2017-09-18T05:13:37.363Z,6.45
2017-09-18T05:16:05.318Z,5.37
2017-09-18T05:18:33.270Z,4.90
2017-09-18T05:21:00.880Z,4.75
2017-09-18T05:23:28.480Z,5.20
2017-09-18T05:25:56.061Z,4.93
2017-09-18T05:28:23.629Z,4.47
2017-09-18T05:30:51.174Z,4.53
2017-09-18T05:33:19.203Z,3.95
2017-09-18T05:35:46.808Z,4.93
2017-09-18T05:38:14.402Z,4.50
2017-09-18T05:40:41.980Z,4.62
2017-09-18T05:43:09.551Z,4.43
2017-09-18T05:45:37.153Z,4.65
2017-09-18T05:48:04.788Z,5.15
2017-09-18T05:50:32.827Z,4.10
2017-09-18T05:53:00.389Z,4.70
2017-09-18T05:55:28.061Z,4.75
2017-09-18T05:57:57.232Z,4.20
2017-09-18T06:00:25.241Z,5.35
2017-09-18T06:02:52.801Z,5.57
2017-09-18T06:05:20.393Z,5.12
2017-09-18T06:07:47.926Z,5.55
2017-09-18T06:10:15.469Z,5.20
2017-09-18T06:12:43.427Z,4.93
2017-09-18T06:15:11.322Z,4.22
2017-09-18T06:17:43.101Z,4.22
2017-09-18T06:20:10.701Z,4.57
2017-09-18T06:22:38.253Z,4.05
2017-09-18T06:25:05.865Z,5.07
2017-09-18T06:27:33.416Z,4.12
2017-09-18T06:30:00.975Z,4.35
2017-09-18T06:32:28.535Z,4.05
2017-09-18T06:34:56.105Z,4.35
2017-09-18T06:37:23.681Z,4.37
2017-09-18T06:39:51.614Z,4.00
2017-09-18T06:42:19.180Z,4.10
2017-09-18T06:44:47.143Z,4.00
2017-09-18T06:47:14.722Z,3.60
2017-09-18T06:49:43.621Z,4.30
2017-09-18T06:52:11.221Z,4.10
2017-09-18T06:54:38.795Z,4.30
2017-09-18T06:57:06.372Z,4.05
2017-09-18T06:59:34.435Z,4.25
2017-09-18T07:02:02.383Z,3.80
2017-09-18T07:04:29.874Z,4.10
2017-09-18T07:06:57.379Z,3.90
2017-09-18T07:09:25.410Z,4.03
2017-09-18T07:11:53.724Z,3.42
2017-09-18T07:14:21.292Z,3.58
2017-09-18T07:16:48.822Z,3.70
2017-09-18T07:19:16.327Z,3.10
2017-09-18T07:21:44.291Z,3.58
2017-09-18T07:24:11.863Z,3.55
2017-09-18T07:26:39.452Z,3.67
2017-09-18T07:29:07.037Z,3.15
2017-09-18T07:31:34.637Z,3.17
2017-09-18T07:34:02.251Z,3.50
2017-09-18T07:36:29.835Z,3.58
2017-09-18T07:38:57.445Z,3.90
2017-09-18T07:41:25.045Z,3.10
2017-09-18T07:43:53.051Z,2.95
2017-09-18T07:46:20.663Z,3.75
2017-09-18T07:48:48.257Z,3.30
2017-09-18T07:51:15.876Z,2.80
2017-09-18T07:53:43.444Z,3.50
2017-09-18T07:56:11.053Z,3.53
2017-09-18T07:58:38.665Z,3.42
2017-09-18T08:01:06.216Z,3.83
2017-09-18T08:03:33.812Z,3.42
2017-09-18T08:06:01.487Z,3.17
2017-09-18T08:08:29.138Z,3.17
2017-09-18T08:10:57.196Z,3.70
2017-09-18T08:13:24.814Z,3.60
2017-09-18T08:15:52.416Z,3.08
2017-09-18T08:18:31.111Z,3.20
2017-09-18T08:23:43.297Z,3.30
2017-09-18T08:26:12.994Z,4.00
2017-09-18T08:28:40.554Z,3.95
2017-09-18T08:31:08.126Z,4.07
2017-09-18T08:33:36.758Z,3.95
2017-09-18T08:36:04.997Z,4.32
2017-09-18T08:38:37.810Z,4.18
2017-09-18T08:41:10.977Z,3.78
2017-09-18T08:46:34.689Z,4.20
2017-09-18T08:49:03.803Z,4.18
2017-09-18T08:51:31.528Z,3.83
2017-09-18T08:53:59.257Z,4.40
2017-09-18T08:59:09.222Z,4.50
2017-09-18T09:01:37.009Z,4.87
2017-09-18T09:04:07.620Z,4.15
2017-09-18T09:06:37.007Z,4.35
2017-09-18T09:09:07.986Z,4.45
2017-09-18T09:11:39.240Z,4.50
2017-09-18T09:14:09.094Z,4.32
2017-09-18T09:16:36.724Z,5.05
2017-09-18T09:19:05.627Z,4.75
2017-09-18T09:21:33.369Z,5.07
2017-09-18T09:24:05.426Z,6.18
2017-09-18T09:26:40.046Z,4.50
2017-09-18T09:29:15.525Z,4.90
2017-09-18T09:31:43.266Z,4.57
2017-09-18T09:34:11.087Z,4.65
2017-09-18T09:36:39.838Z,4.95
2017-09-18T09:39:07.611Z,4.40
2017-09-18T09:41:35.270Z,5.18
2017-09-18T09:44:03.058Z,4.40
2017-09-18T09:46:35.966Z,4.22
2017-09-18T09:49:04.947Z,4.32
2017-09-18T09:51:33.473Z,4.03
2017-09-18T09:54:03.747Z,3.90
2017-09-18T09:56:32.960Z,3.70
2017-09-18T09:59:02.430Z,5.12
2017-09-18T10:01:30.033Z,4.47
2017-09-18T10:03:58.556Z,4.03
2017-09-18T10:06:27.610Z,4.32
2017-09-18T10:08:57.658Z,4.03
2017-09-18T10:11:28.850Z,4.68
2017-09-18T10:14:10.980Z,4.12
2017-09-18T10:16:46.583Z,4.20
2017-09-18T10:19:21.703Z,4.50
2017-09-18T10:21:49.417Z,4.15
2017-09-18T10:24:16.984Z,4.18
2017-09-18T10:26:44.547Z,4.80
2017-09-18T10:29:12.094Z,4.70
2017-09-18T10:31:42.638Z,4.47
2017-09-18T10:34:10.591Z,4.45
2017-09-18T10:36:38.154Z,5.00
2017-09-18T10:39:05.704Z,5.15
2017-09-18T10:41:33.260Z,6.20
2017-09-18T10:44:00.832Z,6.75
2017-09-18T10:46:28.480Z,8.30
2017-09-18T10:48:56.571Z,9.80
2017-09-18T10:51:24.621Z,9.68
2017-09-18T10:53:52.583Z,9.38
2017-09-18T10:56:20.660Z,10.25
2017-09-18T10:58:48.287Z,9.55
2017-09-18T11:01:16.268Z,9.25
2017-09-18T11:03:43.834Z,10.43
2017-09-18T11:06:11.431Z,10.65
2017-09-18T11:08:39.072Z,11.70
2017-09-18T11:11:06.627Z,12.50
2017-09-18T11:13:34.596Z,12.00
2017-09-18T11:16:02.552Z,11.63
2017-09-18T11:18:30.153Z,12.20
2017-09-18T11:20:58.482Z,13.23
2017-09-18T11:23:26.105Z,13.57
2017-09-18T11:25:53.672Z,13.45
2017-09-18T11:28:22.135Z,14.38
2017-09-18T11:30:49.751Z,15.70
2017-09-18T11:33:17.711Z,16.15
2017-09-18T11:35:45.334Z,16.20
2017-09-18T11:38:12.954Z,14.90
2017-09-18T11:40:41.128Z,14.93
2017-09-18T11:43:09.832Z,12.50
2017-09-18T11:45:37.464Z,15.88
2017-09-18T11:48:05.040Z,17.30
2017-09-18T11:50:32.757Z,17.20
2017-09-18T11:53:00.780Z,19.35
2017-09-18T11:55:28.373Z,15.57
2017-09-18T11:58:14.431Z,13.80
2017-09-18T12:00:42.431Z,9.98
2017-09-18T12:03:16.932Z,12.80
2017-09-18T12:05:44.553Z,11.55
2017-09-18T12:08:12.204Z,12.80
2017-09-18T12:10:44.045Z,7.90
2017-09-18T12:13:11.702Z,6.57
2017-09-18T12:15:40.119Z,8.77
2017-09-18T12:18:07.829Z,9.25
2017-09-18T12:20:42.894Z,7.90
2017-09-18T12:23:10.580Z,4.97
2017-09-18T12:25:45.605Z,5.47
2017-09-18T12:28:13.301Z,6.20
2017-09-18T12:30:48.303Z,5.90
2017-09-18T12:33:16.012Z,8.10
2017-09-18T12:35:43.687Z,7.75
2017-09-18T12:38:11.342Z,5.75
2017-09-18T12:40:40.387Z,5.87
2017-09-18T12:43:08.020Z,6.20
2017-09-18T12:45:36.501Z,6.05
2017-09-18T12:48:11.565Z,8.27
2017-09-18T12:50:52.139Z,7.65
2017-09-18T12:53:20.174Z,6.68
2017-09-18T12:55:48.662Z,6.10
2017-09-18T12:58:16.630Z,5.90
2017-09-18T13:00:44.204Z,5.93
2017-09-18T13:03:11.851Z,3.90
2017-09-18T13:05:39.481Z,4.30
2017-09-18T13:08:07.075Z,4.93
2017-09-18T13:10:35.915Z,3.53
2017-09-18T13:13:03.553Z,4.10
2017-09-18T13:18:16.393Z,2.33
2017-09-18T13:24:12.048Z,3.33
2017-09-18T13:26:40.512Z,3.17
2017-09-18T13:29:08.046Z,3.37
2017-09-18T13:31:35.550Z,2.30
2017-09-18T13:34:03.487Z,1.77
2017-09-18T13:36:30.995Z,1.50
2017-09-18T13:38:58.513Z,1.53
2017-09-18T13:41:26.045Z,1.40
2017-09-18T13:43:53.552Z,1.30
2017-09-18T13:46:21.160Z,1.10
2017-09-18T13:48:48.676Z,0.97
2017-09-18T13:51:16.602Z,0.80
2017-09-18T13:53:44.119Z,1.00
2017-09-18T13:56:11.656Z,1.40
2017-09-18T13:58:40.595Z,1.60
2017-09-18T14:01:08.141Z,1.50
2017-09-18T14:03:35.690Z,1.30
2017-09-18T14:06:03.215Z,1.00
2017-09-18T14:08:30.762Z,1.43
2017-09-18T14:10:58.816Z,1.17
2017-09-18T14:13:26.815Z,1.20
2017-09-18T14:15:54.797Z,0.90
2017-09-18T14:18:22.391Z,0.90
2017-09-18T14:20:49.915Z,1.00
2017-09-18T14:23:17.459Z,0.90
2017-09-18T14:25:45.001Z,1.23
2017-09-18T14:28:12.957Z,1.10
2017-09-18T14:30:41.900Z,0.70
2017-09-18T14:33:10.731Z,0.93
2017-09-18T14:35:39.809Z,1.20
2017-09-18T14:38:07.329Z,0.73
2017-09-18T14:40:34.873Z,0.95
2017-09-18T14:43:02.396Z,0.70
2017-09-18T14:45:29.931Z,0.70
2017-09-18T14:47:57.455Z,0.93
2017-09-18T14:50:25.021Z,0.70
2017-09-18T14:52:52.941Z,0.80
2017-09-18T14:55:20.457Z,0.80
2017-09-18T14:57:47.990Z,0.90
2017-09-18T15:00:15.516Z,1.30
2017-09-18T15:02:43.452Z,0.80
2017-09-18T15:05:10.976Z,0.95
2017-09-18T15:07:38.515Z,1.05
2017-09-18T15:10:06.037Z,1.10
2017-09-18T15:12:33.584Z,0.90
2017-09-18T15:15:01.114Z,1.23
2017-09-18T15:17:29.236Z,0.70
2017-09-18T15:19:57.667Z,0.80
2017-09-18T15:22:25.203Z,0.90
2017-09-18T15:24:52.757Z,0.60
2017-09-18T15:27:20.291Z,0.60
2017-09-18T15:29:47.832Z,0.50
2017-09-18T15:32:15.360Z,0.43
2017-09-18T15:34:42.904Z,0.40
2017-09-18T15:37:11.463Z,0.70
2017-09-18T15:39:40.154Z,0.68
2017-09-18T15:42:07.674Z,0.60
2017-09-18T15:44:35.306Z,0.70
2017-09-18T15:47:02.852Z,0.50
2017-09-18T15:49:30.367Z,0.60
2017-09-18T15:51:58.948Z,0.75
2017-09-18T15:54:26.896Z,0.80
2017-09-18T15:56:54.429Z,0.60
2017-09-18T15:59:21.977Z,0.70
2017-09-18T16:01:49.939Z,0.80
2017-09-18T16:04:17.460Z,0.70
2017-09-18T16:06:45.414Z,2.28
2017-09-18T16:09:12.939Z,1.05
2017-09-18T16:11:41.683Z,0.57
2017-09-18T16:14:10.617Z,1.20
2017-09-18T16:16:38.536Z,0.90
2017-09-18T16:19:06.128Z,1.75
2017-09-18T16:21:33.647Z,2.47
2017-09-18T16:24:01.576Z,2.33
2017-09-18T16:26:29.095Z,3.60
2017-09-18T16:28:57.374Z,3.67
2017-09-18T16:31:24.951Z,4.05
2017-09-18T16:33:52.939Z,4.93
2017-09-18T16:36:20.877Z,4.65
2017-09-18T16:38:48.477Z,4.30
2017-09-18T16:41:16.069Z,5.47
2017-09-18T16:43:43.586Z,5.80
2017-09-18T16:46:11.631Z,6.62
2017-09-18T16:48:40.311Z,5.30
2017-09-18T16:51:07.841Z,5.85
2017-09-18T16:53:35.360Z,7.15
2017-09-18T16:56:02.888Z,7.07
2017-09-18T16:58:30.463Z,10.32
2017-09-18T17:00:58.675Z,22.33
2017-09-18T17:03:26.955Z,9.65
2017-09-18T17:05:54.482Z,7.62
2017-09-18T17:08:22.073Z,5.90
2017-09-18T17:10:49.591Z,6.43
2017-09-18T17:13:17.132Z,7.90
2017-09-18T17:15:44.640Z,8.52
2017-09-18T17:18:12.176Z,9.60
2017-09-18T17:20:40.296Z,9.75
2017-09-18T17:23:07.835Z,9.15
2017-09-18T17:25:35.759Z,9.75
2017-09-18T17:28:03.713Z,12.07
2017-09-18T17:30:31.231Z,10.40
2017-09-18T17:32:58.758Z,11.07
2017-09-18T17:35:26.950Z,9.90
2017-09-18T17:37:54.908Z,10.15
2017-09-18T17:40:22.439Z,9.63
2017-09-18T17:42:49.963Z,9.85
2017-09-18T17:45:17.503Z,9.50
2017-09-18T17:47:45.028Z,10.52
2017-09-18T17:50:12.675Z,9.18
2017-09-18T17:52:41.540Z,10.32
2017-09-18T17:55:10.028Z,14.87
2017-09-18T17:57:37.576Z,11.82
2017-09-18T18:00:05.139Z,10.07
2017-09-18T18:02:32.667Z,9.52
2017-09-18T18:05:00.183Z,9.32
2017-09-18T18:07:28.725Z,10.13
2017-09-18T18:09:56.996Z,9.80
2017-09-18T18:12:24.596Z,10.95
2017-09-18T18:14:52.116Z,10.13
2017-09-18T18:17:19.671Z,10.35
2017-09-18T18:19:47.188Z,9.93
2017-09-18T18:22:14.755Z,10.25
2017-09-18T18:24:42.691Z,12.25
2017-09-18T18:27:11.627Z,11.85
2017-09-18T18:29:40.192Z,10.90
2017-09-18T18:32:08.124Z,10.05
2017-09-18T18:34:35.737Z,11.43
2017-09-18T18:37:03.269Z,10.57
2017-09-18T18:39:30.848Z,11.02
2017-09-18T18:41:59.340Z,10.43
2017-09-18T18:44:28.311Z,9.35
2017-09-18T18:46:55.833Z,9.45
2017-09-18T18:49:23.351Z,8.82
2017-09-18T18:51:51.048Z,9.80
2017-09-18T18:54:18.633Z,8.90
2017-09-18T18:56:46.185Z,10.00
2017-09-18T18:59:13.703Z,9.75
2017-09-18T19:01:41.355Z,10.00
2017-09-18T19:04:09.984Z,9.82
2017-09-18T19:06:37.594Z,10.90
2017-09-18T19:09:05.112Z,11.20
2017-09-18T19:11:33.027Z,10.70
2017-09-18T19:14:00.571Z,10.50
2017-09-18T19:16:29.345Z,10.63
2017-09-18T19:18:57.688Z,10.70
2017-09-18T19:21:25.228Z,13.70
2017-09-18T19:23:52.788Z,11.93
2017-09-18T19:26:20.708Z,14.35
2017-09-18T19:28:48.346Z,13.90
2017-09-18T19:31:15.915Z,15.65
2017-09-18T19:33:43.545Z,14.65
2017-09-18T19:36:11.481Z,18.98
2017-09-18T19:38:40.028Z,19.40
2017-09-18T19:41:07.639Z,18.05
2017-09-18T19:43:35.224Z,17.92
2017-09-18T19:46:02.820Z,18.45
2017-09-18T19:48:30.551Z,19.73
2017-09-18T19:50:59.243Z,21.37
2017-09-18T19:53:29.077Z,22.10
2017-09-18T19:55:57.042Z,23.87
2017-09-18T19:58:24.618Z,21.73
2017-09-18T20:00:52.284Z,21.60
2017-09-18T20:03:20.469Z,24.48
2017-09-18T20:05:47.987Z,23.75
2017-09-18T20:08:15.529Z,23.25
2017-09-18T20:10:43.045Z,23.92
2017-09-18T20:13:11.771Z,23.30
2017-09-18T20:15:40.331Z,22.98
2017-09-18T20:18:07.931Z,23.15
2017-09-18T20:20:35.520Z,22.55
2017-09-18T20:23:03.035Z,20.42
2017-09-18T20:25:31.175Z,21.23
2017-09-18T20:27:58.695Z,22.70
2017-09-18T20:30:27.148Z,22.77
2017-09-18T20:32:54.687Z,23.90
2017-09-18T20:35:22.277Z,21.83
2017-09-18T20:37:49.801Z,19.00
2017-09-18T20:40:17.778Z,20.10
2017-09-18T20:42:45.296Z,20.73
2017-09-18T20:45:13.252Z,17.87
2017-09-18T20:47:41.319Z,21.12
2017-09-18T20:50:08.961Z,21.15
2017-09-18T20:52:36.930Z,20.17
2017-09-18T20:55:04.470Z,20.05
2017-09-18T20:57:32.003Z,19.58
2017-09-18T20:59:59.537Z,18.35
2017-09-18T21:02:27.540Z,21.25
2017-09-18T21:04:55.068Z,22.92
2017-09-18T21:07:22.623Z,20.80
2017-09-18T21:09:50.155Z,21.20
2017-09-18T21:12:17.717Z,21.85
2017-09-18T21:14:45.636Z,21.42
2017-09-18T21:17:13.169Z,20.92
2017-09-18T21:19:41.295Z,21.80
2017-09-18T21:22:09.645Z,23.87
2017-09-18T21:24:37.296Z,24.17
2017-09-18T21:27:04.828Z,24.55
2017-09-18T21:29:32.368Z,23.17
2017-09-18T21:31:59.891Z,24.50
2017-09-18T21:34:28.480Z,25.70
2017-09-18T21:36:55.998Z,22.20
2017-09-18T21:39:23.906Z,19.98
2017-09-18T21:41:51.447Z,21.85
2017-09-18T21:44:18.971Z,21.50
2017-09-18T21:46:46.513Z,22.67
2017-09-18T21:49:14.029Z,22.77
2017-09-18T21:51:41.969Z,24.30
2017-09-18T21:54:10.565Z,20.75
2017-09-18T21:56:38.511Z,22.55
2017-09-18T21:59:06.042Z,22.65
2017-09-18T22:01:33.969Z,20.80
2017-09-18T22:04:01.908Z,24.52
2017-09-18T22:06:29.431Z,23.27
2017-09-18T22:08:58.043Z,21.48
2017-09-18T22:11:25.563Z,22.05
2017-09-18T22:13:53.547Z,20.73
2017-09-18T22:16:22.939Z,20.83
2017-09-18T22:18:50.499Z,20.85
2017-09-18T22:21:18.019Z,18.52
2017-09-18T22:23:45.539Z,16.67
2017-09-18T22:26:13.468Z,19.45
2017-09-18T22:28:40.988Z,20.25
2017-09-18T22:31:08.524Z,21.12
2017-09-18T22:33:36.044Z,22.13
2017-09-18T22:36:03.642Z,20.35
2017-09-18T22:38:31.160Z,23.02
2017-09-18T22:40:58.695Z,21.50
2017-09-18T22:43:26.215Z,22.23
2017-09-18T22:45:53.767Z,21.77
2017-09-18T22:48:21.284Z,23.70
2017-09-18T22:50:48.808Z,21.50
2017-09-18T22:53:16.748Z,22.00
2017-09-18T22:55:44.275Z,22.20
2017-09-18T22:58:11.816Z,21.30
2017-09-18T23:00:40.386Z,25.58
2017-09-18T23:03:08.314Z,24.65
2017-09-18T23:05:35.842Z,20.00
2017-09-18T23:08:03.400Z,23.02
2017-09-18T23:10:30.915Z,23.83
2017-09-18T23:12:59.319Z,24.52
2017-09-18T23:15:26.842Z,24.27
2017-09-18T23:17:54.364Z,25.73
2017-09-18T23:20:21.899Z,26.30
2017-09-18T23:22:49.820Z,28.45
2017-09-18T23:25:17.761Z,28.15
2017-09-18T23:27:45.294Z,30.27
2017-09-18T23:30:13.228Z,32.47
2017-09-18T23:32:42.084Z,32.72
2017-09-18T23:35:10.641Z,32.20
2017-09-18T23:37:39.722Z,32.17
2017-09-18T23:40:07.247Z,33.17
2017-09-18T23:42:34.787Z,31.00
2017-09-18T23:45:02.315Z,31.33
2017-09-18T23:47:29.860Z,32.17
2017-09-18T23:49:58.039Z,33.47
2017-09-18T23:52:25.572Z,33.30
2017-09-18T23:54:53.086Z,32.33
2017-09-18T23:57:21.004Z,35.10
2017-09-18T23:59:48.524Z,34.47
